Weather observations for the past three days for
Eastern Oregon Regional Airport at Pendleton
Imperial (Metric)
Date Time (pdt) Wind (mph) Vis. (mi.) Weather Sky Cond. Temperature (ºF) Relative Humidity Wind Chill (°F) Heat Index (°F) Pressure Precipitation (in)
Air Dwpt 6 hour altimeter (in) sea level (mb) 1 hr 3 hr 6 hr
Max. Min.
01 12:53 W 10 10.00 Fair CLR 73.9 46.9 38% 29.75 1006.1
01 11:53 NW 7 9.00 Partly Cloudy FEW090 SCT110 70 48 46% 29.78 1007.3
01 10:53 W 5 8.00 Fair CLR 70 45 70 57 41% 29.78 1007.2
01 09:53 Calm 10.00 Fair CLR 64.9 37.9 37% 29.78 1007.2
01 08:53 Calm 10.00 Fair CLR 64.9 37 36% 29.76 1006.5
01 07:53 SE 7 10.00 Fair CLR 61 36 39% 29.76 1006.6
01 06:53 S 6 10.00 Fair CLR 57.9 35.1 42% 29.75 1005.9
01 05:53 SE 9 10.00 Fair CLR 60.1 35.1 39% 29.73 1005.1
01 04:53 SE 9 10.00 Fair CLR 60.1 35.1 66 59 39% 29.73 1005.2
01 03:53 SE 7 10.00 Fair CLR 61 37 41% 29.74 1005.3
01 02:53 SE 7 10.00 Fair CLR 61 37.9 43% 29.74 1005.6
01 01:53 SE 6 10.00 Partly Cloudy SCT055 61 37.9 43% 29.75 1005.9
01 00:53 Calm 10.00 Fair CLR 64.9 41 42% 29.75 1005.9
31 23:53 SE 3 10.00 Fair CLR 62.1 39.9 44% 29.75 1005.8
31 22:53 NW 8 10.00 Fair CLR 63 39.9 87.1 62.1 43% 29.74 1005.7
31 21:53 W 5 10.00 Fair CLR 71.1 41 34% 29.75 1006.0
31 20:53 NW 3 10.00 Fair CLR 68 39 35% 29.75 1006.1
31 19:53 NW 9 10.00 Fair CLR 71.1 34 26% 29.74 1005.8
31 18:53 N 9 10.00 Fair CLR 80.1 35.1 20% 79 29.75 1006.1
31 17:53 N 13 10.00 Fair CLR 84.9 33.1 15% 82 29.76 1006.3
31 16:53 N 12 10.00 Fair CLR 87.1 33.1 87.1 75.9 14% 84 29.78 1007.0
31 15:53 NE 9 10.00 Fair CLR 87.1 34 15% 84 29.8 1007.6
31 14:53 N 10 10.00 Fair CLR 84 36 18% 81 29.83 1008.6
31 13:53 N 8 G 17 10.00 Fair CLR 82.9 35.1 18% 80 29.85 1009.4
31 12:53 Vrbl 7 10.00 Fair CLR 82 35.1 18% 80 29.88 1010.4
31 11:53 Vrbl 7 10.00 Fair CLR 78.1 35.1 21% 78 29.91 1011.5
31 10:53 Vrbl 6 8.00 Fair CLR 75.9 35.1 75.9 48 23% 77 29.93 1012.4
31 09:53 Calm 7.00 Fair CLR 70 35.1 28% 29.94 1012.8
31 08:53 Calm 9.00 Fair CLR 63 35.1 35% 29.96 1013.5
31 07:53 E 6 6.00 Fair with Haze CLR 59 35.1 41% 29.96 1013.6
31 06:53 E 8 6.00 Fair with Haze CLR 52 34 50% 29.95 1013.2
31 05:53 E 7 6.00 Fair with Haze CLR 48 34 58% 45 29.95 1013.1
31 04:53 E 7 6.00 Fair with Haze CLR 48 33.1 57 48 56% 45 29.95 1013.2
31 03:53 E 6 8.00 Fair CLR 51.1 34 52% 29.96 1013.4
31 02:53 E 7 10.00 Fair CLR 53.1 35.1 51% 29.96 1013.4
31 01:53 SE 9 10.00 Fair CLR 54 35.1 49% 29.98 1013.9
31 00:53 SE 9 10.00 Fair CLR 54 35.1 49% 29.98 1014.2
30 23:53 SE 7 10.00 Fair CLR 54 35.1 49% 29.98 1014.4
30 22:53 E 8 10.00 Fair CLR 55.9 33.1 75.9 55.9 42% 29.99 1014.6
30 21:53 SE 5 10.00 Fair CLR 60.1 34 38% 29.99 1014.7
30 20:53 NE 5 10.00 Fair CLR 62.1 35.1 37% 29.99 1014.7
30 19:53 Calm 10.00 Fair CLR 66.9 37 33% 29.99 1014.5
30 18:53 NW 6 10.00 Fair CLR 73 37.9 28% 29.98 1014.3
30 17:53 NW 8 10.00 Fair CLR 75 37 25% 77 29.98 1014.3
30 16:53 NW 7 10.00 Fair CLR 75 37.9 75.9 64.9 26% 77 29.99 1014.7
30 15:53 Vrbl 3 10.00 Fair CLR 73.9 37.9 27% 30 1015.1
30 14:53 NW 13 G 20 10.00 Fair CLR 73.9 37.9 27% 30.02 1015.6
30 13:53 SW 12 10.00 Fair CLR 73.9 37 26% 30.04 1016.0
30 12:53 W 14 G 21 10.00 Fair CLR 72 37 28% 30.05 1016.5
30 11:53 SW 10 10.00 Fair CLR 66.9 39 36% 30.08 1017.5
30 09:53 Calm 10.00 Fair CLR 62.1 39 43% 30.11 1018.6
30 08:53 S 5 10.00 Fair CLR 57.9 37.9 48% 30.11 1018.7
30 07:53 SE 6 10.00 Fair CLR 53.1 39 59% 30.11 1018.8
30 06:53 S 6 10.00 Fair CLR 48.9 39 69% 47 30.1 1018.6
30 05:53 S 6 10.00 Fair CLR 50 39.9 68% 48 30.09 1018.1
30 04:53 SE 5 10.00 Fair CLR 48.9 39 59 45 69% 48 30.09 1017.9
30 03:53 Calm 10.00 Fair CLR 46.9 39 74% 30.08 1017.6
30 02:53 SE 5 10.00 Fair CLR 48.9 39.9 71% 48 30.07 1017.3
30 01:53 S 7 10.00 Fair CLR 55.9 41 57% 30.06 1016.9
30 00:53 SW 8 10.00 Fair CLR 57 42.1 58% 30.06 1017.1
29 23:53 Calm 10.00 Partly Cloudy SCT080 57 41 55% 30.06 1016.7
29 22:53 W 12 10.00 A Few Clouds FEW080 59 41 71.1 59 51% 30.04 1016.2
29 21:53 Calm 10.00 Fair CLR 60.1 41 50% 30.04 1016.2
29 20:53 W 15 10.00 Fair CLR 61 39.9 46% 30.03 1015.8
29 19:53 W 13 G 23 10.00 Fair CLR 63 36 37% 30 1015.0
29 18:53 W 20 G 31 10.00 Fair CLR 66.9 39 36% 30 1014.7
29 17:53 W 20 G 28 10.00 Fair CLR 70 35.1 28% 29.99 1014.3
29 16:53 W 22 G 38 10.00 Fair and Breezy CLR 70 35.1 73.9 66.9 28% 29.99 1014.4
29 15:53 W 26 G 40 10.00 Fair and Windy CLR 72 35.1 26% 29.99 1014.3
29 14:53 W 22 G 37 10.00 Fair and Breezy CLR 72 36 27% 29.99 1014.2
Date Time (pdt) Wind (mph) Vis. (mi.) Weather Sky Cond. Air Dwpt Max. Min. Relative Humidity Wind Chill (°F) Heat Index (°F) altimeter (in) sea level (mb) 1 hr 3 hr 6 hr
6 hour
Temperature (ºF) Pressure Precipitation (in)